sensor_id;sensor_type;location;lat;lon;timestamp;pressure;altitude;pressure_sealevel;temperature;humidity
12879;BME280;20617;49.476;10.986;2023-03-03T00:00:05;98408.81;;;4.22;100.00
12879;BME280;20617;49.476;10.986;2023-03-03T00:02:16;98407.09;;;4.23;100.00
12879;BME280;20617;49.476;10.986;2023-03-03T00:04:21;98408.81;;;4.22;100.00
12879;BME280;20617;49.476;10.986;2023-03-03T00:06:26;98401.13;;;4.19;100.00
12879;BME280;20617;49.476;10.986;2023-03-03T00:08:36;98414.03;;;4.18;100.00
12879;BME280;20617;49.476;10.986;2023-03-03T00:10:41;98404.66;;;4.12;100.00
12879;BME280;20617;49.476;10.986;2023-03-03T00:12:47;98406.38;;;4.12;100.00
12879;BME280;20617;49.476;10.986;2023-03-03T00:14:53;98409.91;;;4.06;100.00
12879;BME280;20617;49.476;10.986;2023-03-03T00:17:00;98412.56;;;4.00;100.00
12879;BME280;20617;49.476;10.986;2023-03-03T00:19:11;98415.13;;;4.00;100.00
12879;BME280;20617;49.476;10.986;2023-03-03T00:21:29;98412.56;;;4.00;100.00
12879;BME280;20617;49.476;10.986;2023-03-03T00:23:38;98412.56;;;4.00;100.00
12879;BME280;20617;49.476;10.986;2023-03-03T00:25:45;98412.53;;;4.01;100.00
12879;BME280;20617;49.476;10.986;2023-03-03T00:27:53;98404.78;;;4.03;100.00
12879;BME280;20617;49.476;10.986;2023-03-03T00:29:59;98408.22;;;4.03;100.00
12879;BME280;20617;49.476;10.986;2023-03-03T00:32:23;98412.50;;;4.04;100.00
12879;BME280;20617;49.476;10.986;2023-03-03T00:34:28;98415.94;;;4.03;100.00
12879;BME280;20617;49.476;10.986;2023-03-03T00:36:36;98415.13;;;4.00;100.00
12879;BME280;20617;49.476;10.986;2023-03-03T00:38:44;98415.97;;;4.00;100.00
12879;BME280;20617;49.476;10.986;2023-03-03T00:40:49;98415.13;;;4.00;100.00
12879;BME280;20617;49.476;10.986;2023-03-03T00:42:55;98415.13;;;3.98;100.00
12879;BME280;20617;49.476;10.986;2023-03-03T00:45:01;98416.94;;;3.93;100.00
12879;BME280;20617;49.476;10.986;2023-03-03T00:47:27;98411.81;;;3.92;100.00
12879;BME280;20617;49.476;10.986;2023-03-03T00:49:34;98419.56;;;3.90;100.00
12879;BME280;20617;49.476;10.986;2023-03-03T00:51:41;98424.78;;;3.82;100.00
12879;BME280;20617;49.476;10.986;2023-03-03T00:53:50;98429.16;;;3.77;100.00
12879;BME280;20617;49.476;10.986;2023-03-03T00:55:55;98422.38;;;3.70;100.00
12879;BME280;20617;49.476;10.986;2023-03-03T00:58:00;98424.06;;;3.71;100.00
12879;BME280;20617;49.476;10.986;2023-03-03T01:00:10;98431.84;;;3.68;100.00
12879;BME280;20617;49.476;10.986;2023-03-03T01:02:18;98436.13;;;3.66;100.00
12879;BME280;20617;49.476;10.986;2023-03-03T01:04:23;98429.28;;;3.65;100.00
12879;BME280;20617;49.476;10.986;2023-03-03T01:06:28;98428.38;;;3.69;100.00
12879;BME280;20617;49.476;10.986;2023-03-03T01:08:33;98421.50;;;3.71;100.00
12879;BME280;20617;49.476;10.986;2023-03-03T01:10:44;98426.59;;;3.76;100.00
12879;BME280;20617;49.476;10.986;2023-03-03T01:12:51;98425.75;;;3.75;100.00
12879;BME280;20617;49.476;10.986;2023-03-03T01:14:56;98422.31;;;3.76;100.00
12879;BME280;20617;49.476;10.986;2023-03-03T01:17:02;98424.88;;;3.76;100.00
12879;BME280;20617;49.476;10.986;2023-03-03T01:19:08;98422.38;;;3.69;100.00
12879;BME280;20617;49.476;10.986;2023-03-03T01:21:13;98421.56;;;3.63;100.00
12879;BME280;20617;49.476;10.986;2023-03-03T01:23:18;98429.28;;;3.63;100.00
12879;BME280;20617;49.476;10.986;2023-03-03T01:25:22;98426.00;;;3.54;100.00
12879;BME280;20617;49.476;10.986;2023-03-03T01:27:30;98424.44;;;3.40;100.00
12879;BME280;20617;49.476;10.986;2023-03-03T01:29:35;98418.50;;;3.32;100.00
12879;BME280;20617;49.476;10.986;2023-03-03T01:31:40;98418.50;;;3.32;100.00
12879;BME280;20617;49.476;10.986;2023-03-03T01:33:44;98432.28;;;3.27;100.00
12879;BME280;20617;49.476;10.986;2023-03-03T01:35:49;98420.28;;;3.29;100.00
12879;BME280;20617;49.476;10.986;2023-03-03T01:37:54;98415.97;;;3.29;100.00
12879;BME280;20617;49.476;10.986;2023-03-03T01:39:59;98411.72;;;3.25;100.00
12879;BME280;20617;49.476;10.986;2023-03-03T01:42:04;98411.78;;;3.21;100.00
12879;BME280;20617;49.476;10.986;2023-03-03T01:44:14;98415.25;;;3.15;100.00
12879;BME280;20617;49.476;10.986;2023-03-03T01:46:43;98417.84;;;3.10;100.00
12879;BME280;20617;49.476;10.986;2023-03-03T01:48:53;98411.00;;;3.11;100.00
12879;BME280;20617;49.476;10.986;2023-03-03T01:51:08;98412.69;;;3.13;100.00
12879;BME280;20617;49.476;10.986;2023-03-03T01:53:22;98415.31;;;3.09;100.00
12879;BME280;20617;49.476;10.986;2023-03-03T01:55:33;98411.84;;;3.14;100.00
12879;BME280;20617;49.476;10.986;2023-03-03T01:57:42;98413.50;;;3.17;100.00
12879;BME280;20617;49.476;10.986;2023-03-03T01:59:52;98406.63;;;3.19;100.00
12879;BME280;20617;49.476;10.986;2023-03-03T02:01:59;98408.34;;;3.20;100.00
12879;BME280;20617;49.476;10.986;2023-03-03T02:04:04;98400.63;;;3.17;100.00
12879;BME280;20617;49.476;10.986;2023-03-03T02:06:12;98407.47;;;3.21;100.00
12879;BME280;20617;49.476;10.986;2023-03-03T02:08:21;98405.78;;;3.18;100.00
12879;BME280;20617;49.476;10.986;2023-03-03T02:10:29;98406.69;;;3.13;100.00
12879;BME280;20617;49.476;10.986;2023-03-03T02:12:37;98409.31;;;3.07;100.00
12879;BME280;20617;49.476;10.986;2023-03-03T02:14:44;98412.84;;;3.00;100.00
12879;BME280;20617;49.476;10.986;2023-03-03T02:16:51;98411.16;;;2.97;100.00
12879;BME280;20617;49.476;10.986;2023-03-03T02:18:56;98408.53;;;3.00;100.00
12879;BME280;20617;49.476;10.986;2023-03-03T02:21:04;98399.97;;;3.00;100.00
12879;BME280;20617;49.476;10.986;2023-03-03T02:23:16;98411.94;;;3.02;100.00
12879;BME280;20617;49.476;10.986;2023-03-03T02:25:31;98410.25;;;3.03;100.00
12879;BME280;20617;49.476;10.986;2023-03-03T02:27:40;98411.06;;;3.06;100.00
12879;BME280;20617;49.476;10.986;2023-03-03T02:29:46;98412.78;;;3.06;100.00
12879;BME280;20617;49.476;10.986;2023-03-03T02:31:51;98417.03;;;3.05;100.00
12879;BME280;20617;49.476;10.986;2023-03-03T02:33:57;98412.78;;;3.04;100.00
12879;BME280;20617;49.476;10.986;2023-03-03T02:36:02;98411.94;;;3.02;100.00
12879;BME280;20617;49.476;10.986;2023-03-03T02:38:10;98413.69;;;2.99;100.00
12879;BME280;20617;49.476;10.986;2023-03-03T02:40:20;98412.84;;;2.97;100.00
12879;BME280;20617;49.476;10.986;2023-03-03T02:42:29;98406.84;;;2.98;100.00
12879;BME280;20617;49.476;10.986;2023-03-03T02:44:38;98407.69;;;2.98;100.00
12879;BME280;20617;49.476;10.986;2023-03-03T02:46:45;98412.81;;;3.01;100.00
12879;BME280;20617;49.476;10.986;2023-03-03T02:48:50;98413.66;;;3.02;100.00
12879;BME280;20617;49.476;10.986;2023-03-03T02:50:55;98408.50;;;3.02;100.00
12879;BME280;20617;49.476;10.986;2023-03-03T02:53:00;98409.34;;;3.02;100.00
12879;BME280;20617;49.476;10.986;2023-03-03T02:55:07;98408.50;;;3.02;100.00
12879;BME280;20617;49.476;10.986;2023-03-03T02:57:13;98405.97;;;2.99;100.00
12879;BME280;20617;49.476;10.986;2023-03-03T02:59:18;98409.41;;;2.98;100.00
12879;BME280;20617;49.476;10.986;2023-03-03T03:01:27;98415.41;;;2.97;100.00
12879;BME280;20617;49.476;10.986;2023-03-03T03:03:40;98412.88;;;2.93;100.00
12879;BME280;20617;49.476;10.986;2023-03-03T03:05:45;98414.59;;;2.93;100.00
12879;BME280;20617;49.476;10.986;2023-03-03T03:07:52;98416.38;;;2.86;100.00
12879;BME280;20617;49.476;10.986;2023-03-03T03:09:57;98423.25;;;2.83;100.00
12879;BME280;20617;49.476;10.986;2023-03-03T03:12:05;98424.19;;;2.72;100.00
12879;BME280;20617;49.476;10.986;2023-03-03T03:14:11;98416.56;;;2.63;100.00
12879;BME280;20617;49.476;10.986;2023-03-03T03:16:18;98416.59;;;2.62;100.00
12879;BME280;20617;49.476;10.986;2023-03-03T03:18:25;98415.66;;;2.67;100.00
12879;BME280;20617;49.476;10.986;2023-03-03T03:20:35;98422.50;;;2.70;100.00
12879;BME280;20617;49.476;10.986;2023-03-03T03:22:42;98425.03;;;2.73;100.00
12879;BME280;20617;49.476;10.986;2023-03-03T03:24:47;98420.78;;;2.72;100.00
12879;BME280;20617;49.476;10.986;2023-03-03T03:26:51;98425.06;;;2.70;100.00
12879;BME280;20617;49.476;10.986;2023-03-03T03:28:58;98436.22;;;2.69;100.00
12879;BME280;20617;49.476;10.986;2023-03-03T03:31:03;98436.25;;;2.66;100.00
12879;BME280;20617;49.476;10.986;2023-03-03T03:33:09;98426.88;;;2.62;100.00
12879;BME280;20617;49.476;10.986;2023-03-03T03:35:17;98426.88;;;2.59;100.00
12879;BME280;20617;49.476;10.986;2023-03-03T03:37:22;98428.59;;;2.55;100.00
12879;BME280;20617;49.476;10.986;2023-03-03T03:39:27;98432.91;;;2.56;100.00
12879;BME280;20617;49.476;10.986;2023-03-03T03:41:32;98432.13;;;2.43;100.00
12879;BME280;20617;49.476;10.986;2023-03-03T03:43:37;98423.56;;;2.44;100.00
12879;BME280;20617;49.476;10.986;2023-03-03T03:45:43;98428.69;;;2.47;100.00
12879;BME280;20617;49.476;10.986;2023-03-03T03:47:49;98432.94;;;2.47;100.00
12879;BME280;20617;49.476;10.986;2023-03-03T03:49:54;98438.97;;;2.43;100.00
12879;BME280;20617;49.476;10.986;2023-03-03T03:52:01;98439.81;;;2.43;100.00
12879;BME280;20617;49.476;10.986;2023-03-03T03:54:08;98436.44;;;2.35;100.00
12879;BME280;20617;49.476;10.986;2023-03-03T03:56:13;98436.44;;;2.38;100.00
12879;BME280;20617;49.476;10.986;2023-03-03T03:58:21;98438.13;;;2.42;100.00
12879;BME280;20617;49.476;10.986;2023-03-03T04:00:31;98439.84;;;2.42;100.00
12879;BME280;20617;49.476;10.986;2023-03-03T04:02:36;98443.34;;;2.30;100.00
12879;BME280;20617;49.476;10.986;2023-03-03T04:04:45;98439.94;;;2.26;100.00
12879;BME280;20617;49.476;10.986;2023-03-03T04:06:50;98434.81;;;2.20;100.00
12879;BME280;20617;49.476;10.986;2023-03-03T04:08:58;98437.38;;;2.25;100.00
12879;BME280;20617;49.476;10.986;2023-03-03T04:11:04;98429.63;;;2.31;100.00
12879;BME280;20617;49.476;10.986;2023-03-03T04:13:09;98431.31;;;2.37;100.00
12879;BME280;20617;49.476;10.986;2023-03-03T04:15:13;98431.31;;;2.37;100.00
12879;BME280;20617;49.476;10.986;2023-03-03T04:17:22;98423.59;;;2.37;100.00
12879;BME280;20617;49.476;10.986;2023-03-03T04:19:27;98427.06;;;2.36;100.00
12879;BME280;20617;49.476;10.986;2023-03-03T04:21:32;98428.81;;;2.24;100.00
12879;BME280;20617;49.476;10.986;2023-03-03T04:23:37;98440.84;;;2.19;100.00
12879;BME280;20617;49.476;10.986;2023-03-03T04:25:45;98439.13;;;2.18;100.00
12879;BME280;20617;49.476;10.986;2023-03-03T04:27:50;98440.78;;;2.24;100.00
12879;BME280;20617;49.476;10.986;2023-03-03T04:29:57;98444.22;;;2.26;100.00
12879;BME280;20617;49.476;10.986;2023-03-03T04:32:01;98444.22;;;2.26;100.00
12879;BME280;20617;49.476;10.986;2023-03-03T04:34:07;98438.22;;;2.29;100.00
12879;BME280;20617;49.476;10.986;2023-03-03T04:36:13;98447.59;;;2.30;100.00
12879;BME280;20617;49.476;10.986;2023-03-03T04:38:18;98451.91;;;2.29;100.00
12879;BME280;20617;49.476;10.986;2023-03-03T04:40:24;98451.91;;;2.29;100.00
12879;BME280;20617;49.476;10.986;2023-03-03T04:42:32;98448.53;;;2.22;100.00
12879;BME280;20617;49.476;10.986;2023-03-03T04:44:37;98451.09;;;2.21;100.00
12879;BME280;20617;49.476;10.986;2023-03-03T04:46:42;98441.72;;;2.15;100.00
12879;BME280;20617;49.476;10.986;2023-03-03T04:48:47;98451.97;;;2.20;100.00
12879;BME280;20617;49.476;10.986;2023-03-03T04:50:52;98457.09;;;2.20;100.00
12879;BME280;20617;49.476;10.986;2023-03-03T04:52:57;98449.38;;;2.23;100.00
12879;BME280;20617;49.476;10.986;2023-03-03T04:55:03;98445.94;;;2.21;100.00
12879;BME280;20617;49.476;10.986;2023-03-03T04:57:11;98445.94;;;2.21;100.00
12879;BME280;20617;49.476;10.986;2023-03-03T04:59:19;98452.81;;;2.19;100.00
12879;BME280;20617;49.476;10.986;2023-03-03T05:01:24;98450.28;;;2.16;100.00
12879;BME280;20617;49.476;10.986;2023-03-03T05:03:30;98453.69;;;2.16;100.00
12879;BME280;20617;49.476;10.986;2023-03-03T05:05:35;98454.56;;;2.14;100.00
12879;BME280;20617;49.476;10.986;2023-03-03T05:07:39;98459.69;;;2.14;100.00
12879;BME280;20617;49.476;10.986;2023-03-03T05:09:44;98453.69;;;2.12;100.00
12879;BME280;20617;49.476;10.986;2023-03-03T05:11:49;98458.91;;;2.02;100.00
12879;BME280;20617;49.476;10.986;2023-03-03T05:13:54;98458.91;;;2.04;100.00
12879;BME280;20617;49.476;10.986;2023-03-03T05:16:02;98462.31;;;2.04;100.00
12879;BME280;20617;49.476;10.986;2023-03-03T05:18:07;98469.19;;;2.01;100.00
12879;BME280;20617;49.476;10.986;2023-03-03T05:20:12;98470.88;;;2.02;100.00
12879;BME280;20617;49.476;10.986;2023-03-03T05:22:17;98469.19;;;1.99;100.00
12879;BME280;20617;49.476;10.986;2023-03-03T05:24:22;98464.91;;;1.97;100.00
12879;BME280;20617;49.476;10.986;2023-03-03T05:26:27;98466.63;;;1.95;100.00
12879;BME280;20617;49.476;10.986;2023-03-03T05:28:35;98463.19;;;1.97;100.00
12879;BME280;20617;49.476;10.986;2023-03-03T05:30:40;98474.34;;;1.93;100.00
12879;BME280;20617;49.476;10.986;2023-03-03T05:32:47;98469.22;;;1.86;100.00
12879;BME280;20617;49.476;10.986;2023-03-03T05:34:52;98466.69;;;1.81;100.00
12879;BME280;20617;49.476;10.986;2023-03-03T05:36:57;98472.69;;;1.78;100.00
12879;BME280;20617;49.476;10.986;2023-03-03T05:39:02;98478.69;;;1.73;100.00
12879;BME280;20617;49.476;10.986;2023-03-03T05:41:07;98473.56;;;1.71;100.00
12879;BME280;20617;49.476;10.986;2023-03-03T05:43:12;98477.00;;;1.69;100.00
12879;BME280;20617;49.476;10.986;2023-03-03T05:45:17;98476.16;;;1.67;100.00
12879;BME280;20617;49.476;10.986;2023-03-03T05:47:25;98495.81;;;1.68;100.00
12879;BME280;20617;49.476;10.986;2023-03-03T05:49:32;98479.56;;;1.69;100.00
12879;BME280;20617;49.476;10.986;2023-03-03T05:51:37;98486.38;;;1.68;100.00
12879;BME280;20617;49.476;10.986;2023-03-03T05:53:42;98492.41;;;1.64;100.00
12879;BME280;20617;49.476;10.986;2023-03-03T05:55:47;98488.16;;;1.55;100.00
12879;BME280;20617;49.476;10.986;2023-03-03T05:57:51;98500.13;;;1.52;100.00
12879;BME280;20617;49.476;10.986;2023-03-03T05:59:56;98492.44;;;1.55;100.00
12879;BME280;20617;49.476;10.986;2023-03-03T06:02:01;98498.41;;;1.60;100.00
12879;BME280;20617;49.476;10.986;2023-03-03T06:04:06;98512.09;;;1.56;100.00
12879;BME280;20617;49.476;10.986;2023-03-03T06:06:14;98509.53;;;1.48;100.00
12879;BME280;20617;49.476;10.986;2023-03-03T06:08:20;98502.69;;;1.50;100.00
12879;BME280;20617;49.476;10.986;2023-03-03T06:10:25;98506.09;;;1.55;100.00
12879;BME280;20617;49.476;10.986;2023-03-03T06:12:33;98509.53;;;1.56;100.00
12879;BME280;20617;49.476;10.986;2023-03-03T06:14:40;98512.09;;;1.61;100.00
12879;BME280;20617;49.476;10.986;2023-03-03T06:16:45;98510.34;;;1.63;100.00
12879;BME280;20617;49.476;10.986;2023-03-03T06:18:50;98518.91;;;1.65;100.00
12879;BME280;20617;49.476;10.986;2023-03-03T06:20:55;98508.66;;;1.57;100.00
12879;BME280;20617;49.476;10.986;2023-03-03T06:23:02;98513.78;;;1.54;100.00
12879;BME280;20617;49.476;10.986;2023-03-03T06:25:08;98518.94;;;1.54;100.00
12879;BME280;20617;49.476;10.986;2023-03-03T06:27:17;98528.34;;;1.58;100.00
12879;BME280;20617;49.476;10.986;2023-03-03T06:29:22;98536.88;;;1.65;100.00
12879;BME280;20617;49.476;10.986;2023-03-03T06:31:27;98537.72;;;1.70;100.00
12879;BME280;20617;49.476;10.986;2023-03-03T06:33:33;98540.28;;;1.76;100.00
12879;BME280;20617;49.476;10.986;2023-03-03T06:35:39;98543.69;;;1.79;100.00
12879;BME280;20617;49.476;10.986;2023-03-03T06:37:44;98547.09;;;1.89;100.00
12879;BME280;20617;49.476;10.986;2023-03-03T06:39:54;98553.09;;;1.74;100.00
12879;BME280;20617;49.476;10.986;2023-03-03T06:41:59;98547.97;;;1.84;100.00
12879;BME280;20617;49.476;10.986;2023-03-03T06:44:04;98548.78;;;1.86;100.00
12879;BME280;20617;49.476;10.986;2023-03-03T06:46:09;98554.78;;;1.92;100.00
12879;BME280;20617;49.476;10.986;2023-03-03T06:48:14;98561.63;;;1.89;100.00
12879;BME280;20617;49.476;10.986;2023-03-03T06:50:21;98557.34;;;1.98;100.00
12879;BME280;20617;49.476;10.986;2023-03-03T06:52:26;98543.59;;;2.10;100.00
12879;BME280;20617;49.476;10.986;2023-03-03T06:54:34;98544.38;;;2.26;100.00
12879;BME280;20617;49.476;10.986;2023-03-03T06:56:43;98553.75;;;2.39;100.00
12879;BME280;20617;49.476;10.986;2023-03-03T06:58:49;98545.13;;;2.49;100.00
12879;BME280;20617;49.476;10.986;2023-03-03T07:00:58;98547.72;;;2.48;100.00
12879;BME280;20617;49.476;10.986;2023-03-03T07:03:07;98550.38;;;2.28;100.00
12879;BME280;20617;49.476;10.986;2023-03-03T07:05:18;98551.22;;;2.33;100.00
12879;BME280;20617;49.476;10.986;2023-03-03T07:07:24;98555.44;;;2.43;100.00
12879;BME280;20617;49.476;10.986;2023-03-03T07:09:30;98564.84;;;2.51;100.00
12879;BME280;20617;49.476;10.986;2023-03-03T07:11:34;98558.81;;;2.55;100.00
12879;BME280;20617;49.476;10.986;2023-03-03T07:13:46;98557.94;;;2.57;100.00
12879;BME280;20617;49.476;10.986;2023-03-03T07:15:52;98563.06;;;2.62;100.00
12879;BME280;20617;49.476;10.986;2023-03-03T07:17:57;98571.63;;;2.62;100.00
12879;BME280;20617;49.476;10.986;2023-03-03T07:20:14;98569.94;;;2.60;100.00
12879;BME280;20617;49.476;10.986;2023-03-03T07:22:24;98569.06;;;2.61;100.00
12879;BME280;20617;49.476;10.986;2023-03-03T07:24:31;98573.41;;;2.51;100.00
12879;BME280;20617;49.476;10.986;2023-03-03T07:26:36;98570.88;;;2.45;100.00
12879;BME280;20617;49.476;10.986;2023-03-03T07:28:52;98575.19;;;2.32;100.00
12879;BME280;20617;49.476;10.986;2023-03-03T07:30:58;98581.19;;;2.34;100.00
12879;BME280;20617;49.476;10.986;2023-03-03T07:33:04;98581.16;;;2.33;100.00
12879;BME280;20617;49.476;10.986;2023-03-03T07:37:47;98586.31;;;2.37;100.00
12879;BME280;20617;49.476;10.986;2023-03-03T07:39:52;98592.31;;;2.33;100.00
12879;BME280;20617;49.476;10.986;2023-03-03T07:42:08;98590.59;;;2.37;100.00
12879;BME280;20617;49.476;10.986;2023-03-03T07:44:28;98591.44;;;2.39;100.00
12879;BME280;20617;49.476;10.986;2023-03-03T07:46:39;98601.69;;;2.43;100.00
12879;BME280;20617;49.476;10.986;2023-03-03T07:48:45;98600.84;;;2.43;100.00
12879;BME280;20617;49.476;10.986;2023-03-03T07:50:50;98603.38;;;2.51;100.00
12879;BME280;20617;49.476;10.986;2023-03-03T07:52:55;98601.63;;;2.56;100.00
12879;BME280;20617;49.476;10.986;2023-03-03T07:55:01;98603.31;;;2.61;100.00
12879;BME280;20617;49.476;10.986;2023-03-03T07:57:25;98603.28;;;2.67;100.00
12879;BME280;20617;49.476;10.986;2023-03-03T07:59:34;98609.25;;;2.72;100.00
12879;BME280;20617;49.476;10.986;2023-03-03T08:01:42;98613.53;;;2.78;100.00
12879;BME280;20617;49.476;10.986;2023-03-03T08:03:50;98616.91;;;2.85;100.00
12879;BME280;20617;49.476;10.986;2023-03-03T08:05:55;98613.44;;;2.93;100.00
12879;BME280;20617;49.476;10.986;2023-03-03T08:08:21;98615.13;;;3.01;100.00
12879;BME280;20617;49.476;10.986;2023-03-03T08:10:36;98610.84;;;3.00;100.00
12879;BME280;20617;49.476;10.986;2023-03-03T08:12:44;98609.13;;;3.00;100.00
12879;BME280;20617;49.476;10.986;2023-03-03T08:14:53;98612.50;;;3.10;100.00
12879;BME280;20617;49.476;10.986;2023-03-03T08:16:59;98609.84;;;3.21;100.00
12879;BME280;20617;49.476;10.986;2023-03-03T08:19:05;98618.38;;;3.27;100.00
12879;BME280;20617;49.476;10.986;2023-03-03T08:21:12;98608.00;;;3.36;100.00
12879;BME280;20617;49.476;10.986;2023-03-03T08:23:18;98609.66;;;3.45;100.00
12879;BME280;20617;49.476;10.986;2023-03-03T08:25:23;98612.31;;;3.34;100.00
12879;BME280;20617;49.476;10.986;2023-03-03T08:27:28;98611.47;;;3.35;100.00
12879;BME280;20617;49.476;10.986;2023-03-03T08:29:35;98607.03;;;3.53;100.00
12879;BME280;20617;49.476;10.986;2023-03-03T08:31:42;98613.75;;;3.71;100.00
12879;BME280;20617;49.476;10.986;2023-03-03T08:33:48;98612.88;;;3.69;100.00
12879;BME280;20617;49.476;10.986;2023-03-03T08:35:52;98617.16;;;3.73;100.00
12879;BME280;20617;49.476;10.986;2023-03-03T08:37:57;98619.75;;;3.71;100.00
12879;BME280;20617;49.476;10.986;2023-03-03T08:40:03;98624.13;;;3.60;100.00
12879;BME280;20617;49.476;10.986;2023-03-03T08:42:08;98620.59;;;3.73;100.00
12879;BME280;20617;49.476;10.986;2023-03-03T08:44:16;98619.63;;;3.83;100.00
12879;BME280;20617;49.476;10.986;2023-03-03T08:46:21;98626.44;;;3.89;100.00
12879;BME280;20617;49.476;10.986;2023-03-03T08:48:30;98616.03;;;3.98;100.00
12879;BME280;20617;49.476;10.986;2023-03-03T08:50:36;98618.66;;;3.95;100.00
12879;BME280;20617;49.476;10.986;2023-03-03T08:52:42;98617.72;;;4.05;100.00
12879;BME280;20617;49.476;10.986;2023-03-03T08:54:46;98615.91;;;4.12;100.00
12879;BME280;20617;49.476;10.986;2023-03-03T08:56:51;98616.69;;;4.20;100.00
12879;BME280;20617;49.476;10.986;2023-03-03T08:58:56;98614.97;;;4.21;100.00
12879;BME280;20617;49.476;10.986;2023-03-03T09:01:04;98611.47;;;4.26;100.00
12879;BME280;20617;49.476;10.986;2023-03-03T09:03:09;98599.31;;;4.38;100.00
12879;BME280;20617;49.476;10.986;2023-03-03T09:05:17;98606.13;;;4.43;100.00
12879;BME280;20617;49.476;10.986;2023-03-03T09:07:22;98604.34;;;4.47;100.00
12879;BME280;20617;49.476;10.986;2023-03-03T09:09:27;98605.97;;;4.56;100.00
12879;BME280;20617;49.476;10.986;2023-03-03T09:11:32;98599.03;;;4.61;100.00
12879;BME280;20617;49.476;10.986;2023-03-03T09:13:37;98604.94;;;4.69;100.00
12879;BME280;20617;49.476;10.986;2023-03-03T09:15:42;98603.06;;;4.83;100.00
12879;BME280;20617;49.476;10.986;2023-03-03T09:17:47;98596.16;;;4.84;100.00
12879;BME280;20617;49.476;10.986;2023-03-03T09:19:54;98599.63;;;4.80;100.00
12879;BME280;20617;49.476;10.986;2023-03-03T09:22:18;98599.41;;;4.96;100.00
12879;BME280;20617;49.476;10.986;2023-03-03T09:24:25;98600.09;;;5.09;100.00
12879;BME280;20617;49.476;10.986;2023-03-03T09:26:30;98599.03;;;5.22;100.00
12879;BME280;20617;49.476;10.986;2023-03-03T09:28:46;98611.66;;;5.41;100.00
12879;BME280;20617;49.476;10.986;2023-03-03T09:30:52;98600.25;;;5.56;100.00
12879;BME280;20617;49.476;10.986;2023-03-03T09:32:58;98605.94;;;5.76;100.00
12879;BME280;20617;49.476;10.986;2023-03-03T09:35:33;98602.09;;;6.00;100.00
12879;BME280;20617;49.476;10.986;2023-03-03T09:37:42;98608.47;;;6.27;100.00
12879;BME280;20617;49.476;10.986;2023-03-03T09:39:49;98601.63;;;6.25;100.00
12879;BME280;20617;49.476;10.986;2023-03-03T09:47:23;98609.69;;;6.54;100.00
12879;BME280;20617;49.476;10.986;2023-03-03T09:49:35;98614.75;;;6.59;100.00
12879;BME280;20617;49.476;10.986;2023-03-03T09:52:02;98612.19;;;6.57;100.00
12879;BME280;20617;49.476;10.986;2023-03-03T09:54:22;98615.19;;;6.38;100.00
12879;BME280;20617;49.476;10.986;2023-03-03T09:56:32;98613.38;;;6.41;100.00
12879;BME280;20617;49.476;10.986;2023-03-03T09:58:51;98610.66;;;6.47;100.00
12879;BME280;20617;49.476;10.986;2023-03-03T10:01:05;98616.81;;;6.42;100.00
12879;BME280;20617;49.476;10.986;2023-03-03T10:03:40;98622.69;;;6.50;100.00
12879;BME280;20617;49.476;10.986;2023-03-03T10:05:55;98628.84;;;6.44;100.00
12879;BME280;20617;49.476;10.986;2023-03-03T10:08:17;98627.22;;;6.39;100.00
12879;BME280;20617;49.476;10.986;2023-03-03T10:10:49;98627.13;;;6.43;100.00
12879;BME280;20617;49.476;10.986;2023-03-03T10:13:07;98621.00;;;6.47;100.00
12879;BME280;20617;49.476;10.986;2023-03-03T10:15:29;98616.66;;;6.49;100.00
12879;BME280;20617;49.476;10.986;2023-03-03T10:17:46;98622.63;;;6.53;100.00
12879;BME280;20617;49.476;10.986;2023-03-03T10:20:02;98619.28;;;6.48;100.00
12879;BME280;20617;49.476;10.986;2023-03-03T10:22:17;98625.91;;;6.61;100.00
12879;BME280;20617;49.476;10.986;2023-03-03T10:24:27;98626.63;;;6.68;100.00
12879;BME280;20617;49.476;10.986;2023-03-03T10:29:28;98610.22;;;6.69;100.00
12879;BME280;20617;49.476;10.986;2023-03-03T10:31:48;98605.91;;;6.69;100.00
12879;BME280;20617;49.476;10.986;2023-03-03T10:34:03;98605.03;;;6.69;100.00
12879;BME280;20617;49.476;10.986;2023-03-03T10:36:20;98613.75;;;6.65;100.00
12879;BME280;20617;49.476;10.986;2023-03-03T10:38:39;98610.00;;;6.79;100.00
12879;BME280;20617;49.476;10.986;2023-03-03T10:40:51;98612.50;;;6.84;100.00
12879;BME280;20617;49.476;10.986;2023-03-03T10:43:17;98612.59;;;6.79;100.00
12879;BME280;20617;49.476;10.986;2023-03-03T10:46:01;98609.09;;;6.80;100.00
12879;BME280;20617;49.476;10.986;2023-03-03T10:48:24;98618.25;;;6.98;100.00
12879;BME280;20617;49.476;10.986;2023-03-03T10:50:44;98608.38;;;7.14;100.00
12879;BME280;20617;49.476;10.986;2023-03-03T10:53:00;98607.41;;;7.20;100.00
12879;BME280;20617;49.476;10.986;2023-03-03T10:55:22;98613.19;;;7.30;100.00
12879;BME280;20617;49.476;10.986;2023-03-03T10:57:36;98600.84;;;7.42;100.00
12879;BME280;20617;49.476;10.986;2023-03-03T10:59:55;98611.13;;;7.44;100.00
12879;BME280;20617;49.476;10.986;2023-03-03T11:02:11;98605.25;;;7.37;100.00
12879;BME280;20617;49.476;10.986;2023-03-03T11:04:52;98611.75;;;7.55;100.00
12879;BME280;20617;49.476;10.986;2023-03-03T11:07:07;98606.03;;;7.41;100.00
12879;BME280;20617;49.476;10.986;2023-03-03T11:09:33;98608.69;;;7.39;100.00
12879;BME280;20617;49.476;10.986;2023-03-03T11:11:46;98608.31;;;7.55;100.00
12879;BME280;20617;49.476;10.986;2023-03-03T11:14:00;98608.16;;;7.61;100.00
12879;BME280;20617;49.476;10.986;2023-03-03T11:16:27;98608.00;;;7.67;100.00
12879;BME280;20617;49.476;10.986;2023-03-03T11:18:47;98601.88;;;7.71;100.00
12879;BME280;20617;49.476;10.986;2023-03-03T11:21:00;98602.81;;;7.67;100.00
12879;BME280;20617;49.476;10.986;2023-03-03T11:23:28;98595.38;;;7.87;100.00